Time;durP1;ratioP1;P1;durP2;ratioP2;P2;SDS_P1;SDS_P2;PMS_P1;PMS_P2;Temp;Humidity;BMP_temperature;BMP_pressure;BME280_temperature;BME280_humidity;BME280_pressure;Samples;Min_cycle;Max_cycle;Signal;HPM_P1;HPM_P2
2022/06/11 00:00:40;;;;;;;0.13;0.10;;;;;;;19.08;57.94;97264.41;10411173;28;20087;-21
2022/06/11 00:05:40;;;;;;;0.10;0.10;;;;;;;19.14;57.95;97273.75;10410748;28;20530;-21
2022/06/11 00:10:42;;;;;;;0.30;0.25;;;;;;;19.14;57.74;97283.91;10411228;28;20029;-23
2022/06/11 00:15:43;;;;;;;0.17;0.17;;;;;;;19.13;57.77;97277.13;10410392;28;20182;-21
2022/06/11 00:20:43;;;;;;;0.10;0.10;;;;;;;19.24;59.01;97270.50;10409906;28;20033;-22
2022/06/11 00:25:44;;;;;;;0.25;0.10;;;;;;;19.43;59.21;97279.91;10412918;28;20032;-21
2022/06/11 00:30:45;;;;;;;0.10;0.10;;;;;;;19.31;58.06;97278.13;10451540;28;20036;-22
2022/06/11 00:35:46;;;;;;;0.10;0.10;;;;;;;19.24;57.77;97275.56;10434293;28;20075;-21
2022/06/11 00:40:50;;;;;;;0.10;0.10;;;;;;;19.19;57.91;97284.81;10409428;28;20355;-21
2022/06/11 00:46:35;;;;;;;0.20;0.10;;;;;;;19.17;57.74;97286.47;10409766;28;20048;-21
2022/06/11 00:51:37;;;;;;;0.00;0.00;;;;;;;19.15;57.82;97281.38;10411594;28;20044;-22
2022/06/11 00:56:44;;;;;;;0.20;0.00;;;;;;;19.13;57.79;97278.00;10408626;28;20053;-22
2022/06/11 01:01:47;;;;;;;0.10;0.10;;;;;;;19.15;57.72;97280.53;10408322;28;20191;-23
2022/06/11 01:06:53;;;;;;;0.10;0.10;;;;;;;19.13;57.87;97282.22;10408535;28;20059;-21
2022/06/11 01:12:07;;;;;;;0.25;0.20;;;;;;;19.14;57.87;97281.38;10408401;28;20848;-24
2022/06/11 01:17:23;;;;;;;0.10;0.10;;;;;;;19.20;59.58;97283.97;10408682;28;20041;-22
2022/06/11 01:22:50;;;;;;;0.10;0.10;;;;;;;19.40;59.35;97278.19;10408252;28;20034;-22
2022/06/11 01:28:08;;;;;;;0.10;0.10;;;;;;;19.37;58.22;97280.72;10408903;28;20033;-21
2022/06/11 01:33:24;;;;;;;0.25;0.10;;;;;;;19.24;57.69;97275.56;10429982;28;20041;-22
2022/06/11 01:38:35;;;;;;;0.00;0.00;;;;;;;19.18;57.76;97271.25;10420432;28;20061;-22
2022/06/11 01:43:42;;;;;;;0.10;0.10;;;;;;;19.15;57.83;97272.91;10415866;28;20121;-22
2022/06/11 01:48:56;;;;;;;0.03;0.00;;;;;;;19.15;57.94;97278.84;10416125;28;20025;-21
2022/06/11 01:54:07;;;;;;;0.10;0.10;;;;;;;19.14;57.91;97268.69;10480787;28;20071;-22
2022/06/11 01:59:28;;;;;;;0.10;0.10;;;;;;;19.14;58.03;97271.22;10434776;28;20033;-21
2022/06/11 02:04:57;;;;;;;0.10;0.10;;;;;;;19.13;57.89;97266.97;10415448;28;20083;-21
2022/06/11 02:10:23;;;;;;;0.10;0.10;;;;;;;19.12;57.76;97265.28;10414904;28;20037;-22
2022/06/11 02:15:43;;;;;;;0.15;0.10;;;;;;;19.14;58.81;97261.94;10415744;28;20139;-21
2022/06/11 02:20:50;;;;;;;0.17;0.17;;;;;;;19.35;59.32;97269.69;10414407;28;20091;-22
2022/06/11 02:25:56;;;;;;;0.20;0.20;;;;;;;19.38;58.16;97269.72;10414272;28;20037;-21
2022/06/11 02:31:02;;;;;;;0.00;0.00;;;;;;;19.26;57.70;97273.88;10414936;28;20065;-24
2022/06/11 02:36:27;;;;;;;0.10;0.10;;;;;;;19.20;57.74;97268.75;10430821;28;20041;-22
2022/06/11 02:41:33;;;;;;;0.20;0.20;;;;;;;19.17;57.89;97273.78;10421245;28;20036;-21
2022/06/11 02:46:43;;;;;;;0.20;0.20;;;;;;;19.16;57.81;97277.16;10455188;28;20037;-22
2022/06/11 02:51:44;;;;;;;0.10;0.10;;;;;;;19.14;57.90;97271.22;10462666;28;20028;-21
2022/06/11 02:56:47;;;;;;;0.95;0.20;;;;;;;19.14;57.88;97278.81;10482402;28;20449;-20
2022/06/11 03:01:47;;;;;;;0.10;0.10;;;;;;;19.12;57.97;97266.16;10454756;28;20044;-20
2022/06/11 03:06:48;;;;;;;0.20;0.20;;;;;;;19.12;57.67;97271.22;10424105;28;20496;-21
2022/06/11 03:11:49;;;;;;;0.30;0.10;;;;;;;19.12;57.81;97281.38;10412954;28;20022;-22
2022/06/11 03:16:50;;;;;;;0.00;0.00;;;;;;;19.24;58.82;97273.84;10412367;28;20041;-23
2022/06/11 03:21:54;;;;;;;0.10;0.10;;;;;;;19.41;59.33;97284.94;10436914;28;20102;-20
2022/06/11 03:26:55;;;;;;;0.10;0.08;;;;;;;19.35;57.96;97289.16;10439636;28;20049;-22
2022/06/11 03:31:56;;;;;;;0.25;0.10;;;;;;;19.22;57.82;97283.16;10415519;28;20508;-21
2022/06/11 03:36:57;;;;;;;0.05;0.05;;;;;;;19.16;57.81;97282.25;10425844;28;20037;-23
2022/06/11 03:41:58;;;;;;;0.13;0.13;;;;;;;19.16;58.00;97289.88;10424832;28;20454;-21
2022/06/11 03:46:58;;;;;;;0.10;0.10;;;;;;;19.14;57.87;97288.97;10452694;28;20035;-21
2022/06/11 03:51:59;;;;;;;0.28;0.10;;;;;;;19.13;57.82;97290.69;10460667;28;20066;-21
2022/06/11 03:56:59;;;;;;;0.30;0.10;;;;;;;19.13;57.87;97294.91;10464906;28;20373;-21
2022/06/11 04:02:00;;;;;;;0.20;0.20;;;;;;;19.12;57.70;97300.81;10411052;28;20484;-21
2022/06/11 04:07:02;;;;;;;0.10;0.10;;;;;;;19.12;57.89;97305.91;10436204;28;20323;-21
2022/06/11 04:12:05;;;;;;;0.10;0.10;;;;;;;19.12;57.84;97305.91;10436997;28;20041;-23
2022/06/11 04:17:10;;;;;;;0.10;0.03;;;;;;;19.26;58.81;97304.34;10409942;28;20072;-21
2022/06/11 04:22:11;;;;;;;0.25;0.10;;;;;;;19.41;59.02;97304.44;10409775;28;20297;-21
2022/06/11 04:27:15;;;;;;;0.10;0.05;;;;;;;19.29;57.85;97301.81;10410169;28;20041;-22
2022/06/11 04:32:16;;;;;;;0.20;0.15;;;;;;;19.21;57.74;97309.38;10415361;28;20033;-21
2022/06/11 04:37:20;;;;;;;0.10;0.10;;;;;;;19.18;57.84;97311.03;10425332;28;20033;-21
2022/06/11 04:42:23;;;;;;;0.10;0.10;;;;;;;19.15;58.02;97305.91;10408954;28;20091;-23
2022/06/11 04:47:26;;;;;;;0.10;0.03;;;;;;;19.12;57.85;97311.84;10410049;28;20033;-21
2022/06/11 04:52:27;;;;;;;0.10;0.10;;;;;;;19.12;57.92;97311.84;10449903;28;20028;-21
2022/06/11 04:57:27;;;;;;;0.22;0.17;;;;;;;19.12;57.88;97310.97;10455340;28;20040;-21
2022/06/11 05:02:27;;;;;;;0.10;0.10;;;;;;;19.11;57.87;97316.88;10409076;28;20041;-21
2022/06/11 05:07:28;;;;;;;0.10;0.07;;;;;;;19.06;57.67;97326.16;10442144;28;20061;-21
2022/06/11 05:12:28;;;;;;;0.10;0.10;;;;;;;19.08;57.89;97319.41;10430852;28;20042;-21
2022/06/11 05:17:29;;;;;;;0.10;0.10;;;;;;;19.30;58.81;97316.19;10408461;28;20061;-21
2022/06/11 05:22:29;;;;;;;0.13;0.13;;;;;;;19.38;57.97;97324.72;10407834;28;20049;-22
2022/06/11 05:27:30;;;;;;;0.10;0.10;;;;;;;19.23;57.64;97325.47;10408218;28;20037;-22
2022/06/11 05:32:33;;;;;;;0.03;0.03;;;;;;;19.17;57.70;97330.47;10416174;28;20041;-21
2022/06/11 05:37:34;;;;;;;0.10;0.10;;;;;;;19.15;57.97;97333.81;10416769;28;20283;-21
2022/06/11 05:42:34;;;;;;;0.10;0.10;;;;;;;19.11;57.81;97335.53;10425978;28;20045;-22
2022/06/11 05:47:35;;;;;;;0.20;0.20;;;;;;;19.12;57.83;97336.34;10449237;28;20514;-23
2022/06/11 05:52:39;;;;;;;0.30;0.30;;;;;;;19.05;57.81;97324.44;10466019;28;20032;-20
2022/06/11 05:57:39;;;;;;;0.10;0.10;;;;;;;19.09;57.65;97341.41;10449962;28;20044;-21
2022/06/11 06:02:40;;;;;;;0.10;0.10;;;;;;;19.09;57.82;97333.81;10407397;28;20040;-23
2022/06/11 06:07:41;;;;;;;0.10;0.10;;;;;;;19.09;57.83;97336.34;10439113;28;20178;-22
2022/06/11 06:12:41;;;;;;;0.20;0.20;;;;;;;19.15;58.55;97329.63;10428279;28;20522;-22
2022/06/11 06:17:42;;;;;;;0.28;0.20;;;;;;;19.36;59.10;97336.56;10412749;28;20080;-21
2022/06/11 06:22:42;;;;;;;0.20;0.20;;;;;;;19.35;57.74;97329.78;10446588;28;20075;-21
2022/06/11 06:27:43;;;;;;;0.05;0.05;;;;;;;19.22;57.79;97328.84;10435564;28;20064;-21
2022/06/11 06:32:43;;;;;;;0.07;0.07;;;;;;;19.16;57.73;97333.84;10423804;28;20052;-21
2022/06/11 06:37:44;;;;;;;0.20;0.17;;;;;;;19.15;57.79;97336.38;10454423;28;20037;-21
2022/06/11 06:42:44;;;;;;;0.10;0.10;;;;;;;19.13;57.96;97335.50;10434809;28;20500;-21
2022/06/11 06:47:44;;;;;;;0.30;0.10;;;;;;;19.11;57.94;97337.19;10414652;28;20071;-21
2022/06/11 06:52:45;;;;;;;0.10;0.10;;;;;;;19.10;57.86;97340.56;10415790;28;20036;-20
2022/06/11 06:57:45;;;;;;;0.20;0.20;;;;;;;19.10;57.85;97343.94;10413630;28;20045;-21
2022/06/11 07:02:46;;;;;;;0.10;0.10;;;;;;;19.08;57.87;97344.81;10414197;28;20045;-25
2022/06/11 07:07:48;;;;;;;0.20;0.20;;;;;;;19.10;57.79;97348.19;10413430;28;20574;-22
2022/06/11 07:12:48;;;;;;;0.10;0.10;;;;;;;19.20;58.76;97339.84;10412731;28;20116;-22
2022/06/11 07:17:55;;;;;;;0.10;0.10;;;;;;;19.36;59.55;97346.72;10413289;28;20032;-22
2022/06/11 07:23:04;;;;;;;0.00;0.00;;;;;;;19.30;58.07;97346.66;10413269;28;20049;-22
2022/06/11 07:28:14;;;;;;;0.00;0.00;;;;;;;19.21;57.69;97346.59;10411670;28;20491;-21
2022/06/11 07:33:19;;;;;;;0.38;0.20;;;;;;;19.13;57.77;97326.22;10425102;28;20078;-21
2022/06/11 07:38:22;;;;;;;0.10;0.10;;;;;;;19.08;57.87;97319.41;10453570;28;20060;-21
2022/06/11 07:43:23;;;;;;;0.63;0.17;;;;;;;19.12;57.65;97331.28;10427455;28;20033;-23
2022/06/11 07:48:23;;;;;;;0.15;0.10;;;;;;;19.10;57.78;97325.34;10411950;28;20041;-22
2022/06/11 07:53:24;;;;;;;0.10;0.10;;;;;;;19.11;57.71;97329.59;10413004;28;20040;-21
2022/06/11 07:58:27;;;;;;;0.30;0.10;;;;;;;19.10;57.75;97327.88;10410772;28;20114;-22
2022/06/11 08:03:28;;;;;;;0.77;0.20;;;;;;;19.09;57.80;97321.13;10410941;28;20280;-22
2022/06/11 08:08:29;;;;;;;0.10;0.10;;;;;;;19.09;57.80;97321.13;10444402;28;20044;-20
2022/06/11 08:13:30;;;;;;;0.10;0.10;;;;;;;19.29;58.61;97319.59;10425120;28;20059;-22
2022/06/11 08:18:32;;;;;;;0.20;0.20;;;;;;;19.40;58.27;97318.81;10413628;28;20043;-21
2022/06/11 08:23:32;;;;;;;0.10;0.10;;;;;;;19.26;57.53;97319.56;10450923;28;20065;-21
2022/06/11 08:28:33;;;;;;;0.07;0.07;;;;;;;19.20;57.63;97319.53;10424475;28;20108;-21
2022/06/11 08:33:34;;;;;;;0.20;0.10;;;;;;;19.16;57.70;97325.41;10421617;28;20029;-22
2022/06/11 08:38:34;;;;;;;0.15;0.10;;;;;;;19.09;57.69;97316.88;10409548;28;20040;-23
2022/06/11 08:43:40;;;;;;;0.10;0.10;;;;;;;19.12;57.84;97322.00;10435096;28;20407;-21
2022/06/11 08:49:05;;;;;;;0.00;0.00;;;;;;;19.12;58.02;97316.06;10450445;28;20272;-22
2022/06/11 08:54:10;;;;;;;0.10;0.10;;;;;;;19.11;57.80;97316.88;10477427;28;20291;-21
2022/06/11 08:59:39;;;;;;;0.10;0.10;;;;;;;19.12;57.78;97316.06;10426870;28;20084;-21
2022/06/11 09:04:51;;;;;;;0.03;0.03;;;;;;;19.09;57.77;97311.78;10408548;28;20488;-21
2022/06/11 09:10:27;;;;;;;0.15;0.15;;;;;;;19.20;58.81;97309.38;10409364;28;20057;-23
2022/06/11 09:15:38;;;;;;;0.10;0.10;;;;;;;19.36;59.14;97299.34;10408334;28;20036;-22
2022/06/11 09:21:11;;;;;;;0.10;0.10;;;;;;;19.33;57.96;97308.63;10408404;28;20092;-23
2022/06/11 09:26:54;;;;;;;0.10;0.03;;;;;;;19.22;57.85;97302.59;10408255;28;20565;-22
2022/06/11 09:32:14;;;;;;;0.10;0.10;;;;;;;19.17;57.87;97304.25;10411513;28;20037;-21
2022/06/11 09:37:33;;;;;;;0.10;0.10;;;;;;;19.16;57.82;97294.94;10421934;28;20040;-21
2022/06/11 09:42:55;;;;;;;0.10;0.10;;;;;;;19.15;57.97;97305.91;10408024;28;20041;-21
2022/06/11 09:48:20;;;;;;;0.10;0.10;;;;;;;19.14;57.83;97309.28;10408401;28;20288;-21
2022/06/11 09:53:36;;;;;;;0.45;0.10;;;;;;;19.13;57.84;97302.50;10471133;28;20045;-22
2022/06/11 09:59:15;;;;;;;0.10;0.10;;;;;;;19.13;58.01;97307.59;10469740;28;20025;-21
2022/06/11 10:04:22;;;;;;;0.03;0.03;;;;;;;19.12;57.92;97305.91;10445417;28;20049;-21
2022/06/11 10:09:34;;;;;;;0.15;0.15;;;;;;;19.20;58.88;97300.09;10420037;28;20041;-22
2022/06/11 10:14:43;;;;;;;0.10;0.10;;;;;;;19.38;58.98;97304.41;10415626;28;20450;-21
2022/06/11 10:20:08;;;;;;;0.10;0.10;;;;;;;19.35;58.04;97304.41;10415167;28;20095;-21
2022/06/11 10:25:11;;;;;;;0.00;0.00;;;;;;;19.26;57.96;97309.41;10414935;28;20544;-21
2022/06/11 10:30:38;;;;;;;0.10;0.10;;;;;;;19.21;57.78;97300.91;10454006;28;20048;-22
2022/06/11 10:35:43;;;;;;;0.40;0.10;;;;;;;19.14;57.89;97301.66;10454519;28;20148;-21
2022/06/11 10:40:46;;;;;;;0.10;0.10;;;;;;;19.15;57.84;97303.38;10451835;28;20099;-22
2022/06/11 10:45:48;;;;;;;0.10;0.10;;;;;;;19.16;58.03;97307.63;10415124;28;20072;-21
2022/06/11 10:50:50;;;;;;;0.10;0.10;;;;;;;19.15;57.97;97305.91;10418030;28;20029;-22
2022/06/11 10:55:55;;;;;;;0.20;0.15;;;;;;;19.13;57.97;97303.38;10413698;28;20083;-23
2022/06/11 11:01:03;;;;;;;0.10;0.10;;;;;;;19.13;57.89;97299.97;10412282;28;20064;-21
2022/06/11 11:06:09;;;;;;;0.88;0.10;;;;;;;19.10;57.88;97289.81;10412396;28;20025;-21
2022/06/11 11:11:10;;;;;;;;;;;;;;;19.32;58.81;97291.66;10413174;28;20055;-21
2022/06/11 11:16:13;;;;;;;0.20;0.10;;;;;;;19.43;58.46;97295.13;10412452;28;19943;-21
2022/06/11 11:21:33;;;;;;;0.10;0.10;;;;;;;19.29;57.83;97294.19;10412670;28;20037;-20
2022/06/11 11:26:39;;;;;;;0.10;0.10;;;;;;;19.22;57.91;97282.28;10411818;28;20403;-21
2022/06/11 11:31:49;;;;;;;0.65;0.10;;;;;;;19.18;57.88;97280.56;10413238;28;20030;-22
2022/06/11 11:36:57;;;;;;;0.10;0.10;;;;;;;19.16;57.78;97282.25;10436162;28;20060;-22
2022/06/11 11:42:07;;;;;;;0.10;0.10;;;;;;;19.08;57.92;97261.03;10411551;28;20124;-22
2022/06/11 11:47:25;;;;;;;0.10;0.10;;;;;;;19.14;57.87;97268.69;10411598;28;20476;-21
2022/06/11 11:52:27;;;;;;;0.10;0.10;;;;;;;19.14;57.89;97263.59;10466722;28;20120;-22
2022/06/11 11:57:31;;;;;;;0.10;0.10;;;;;;;19.14;57.92;97268.69;10457467;28;20119;-23
2022/06/11 12:02:46;;;;;;;0.20;0.20;;;;;;;19.13;57.72;97262.78;10411057;28;20041;-25
2022/06/11 12:07:48;;;;;;;0.00;0.00;;;;;;;19.23;58.91;97258.59;10448444;28;20048;-21
2022/06/11 12:12:50;;;;;;;0.20;0.20;;;;;;;19.40;58.94;97251.91;10429968;28;20061;-22
2022/06/11 12:18:11;;;;;;;0.10;0.10;;;;;;;19.36;58.15;97250.22;10410953;28;20037;-21
2022/06/11 12:23:30;;;;;;;0.10;0.10;;;;;;;19.24;57.64;97242.56;10409776;28;20037;-22
2022/06/11 12:28:49;;;;;;;0.17;0.10;;;;;;;19.20;57.82;97243.38;10409668;28;20164;-22
2022/06/11 12:33:51;;;;;;;0.10;0.10;;;;;;;19.17;57.84;97238.25;10428219;28;20036;-22
2022/06/11 12:38:59;;;;;;;0.10;0.10;;;;;;;19.15;57.70;97239.91;10415798;28;20041;-22
2022/06/11 12:44:21;;;;;;;0.13;0.13;;;;;;;19.15;58.08;97240.78;10438383;28;20043;-22
2022/06/11 12:49:36;;;;;;;0.10;0.10;;;;;;;19.14;57.83;97239.06;10450239;28;20033;-22
2022/06/11 12:55:04;;;;;;;0.10;0.10;;;;;;;19.09;57.74;97229.75;10449129;28;20078;-23
2022/06/11 13:00:40;;;;;;;0.10;0.10;;;;;;;19.12;57.81;97230.63;10410716;28;20041;-22
2022/06/11 13:06:15;;;;;;;0.08;0.08;;;;;;;19.20;59.61;97234.06;10415417;28;20048;-21
2022/06/11 13:11:37;;;;;;;0.30;0.17;;;;;;;19.39;59.20;97229.91;10442093;28;20029;-22
2022/06/11 13:16:50;;;;;;;0.20;0.20;;;;;;;19.38;57.87;97231.63;10408708;28;20057;-21
2022/06/11 13:22:19;;;;;;;0.10;0.10;;;;;;;19.20;57.97;97223.06;10426928;28;20041;-22
2022/06/11 13:27:40;;;;;;;0.15;0.15;;;;;;;19.12;58.09;97220.47;10431502;28;20100;-21
2022/06/11 13:32:54;;;;;;;0.10;0.10;;;;;;;19.18;57.85;97224.72;10417456;28;20522;-21
2022/06/11 13:38:22;;;;;;;0.20;0.20;;;;;;;19.17;57.83;97226.41;10448041;28;20063;-21
2022/06/11 13:43:38;;;;;;;0.10;0.10;;;;;;;19.16;57.93;97216.25;10423498;28;20548;-22
2022/06/11 13:48:42;;;;;;;0.10;0.10;;;;;;;19.15;57.90;97214.53;10407884;28;20030;-24
2022/06/11 13:59:22;;;;;;;0.10;0.10;;;;;;;19.14;57.82;97205.22;10424910;28;20064;-21
2022/06/11 14:04:33;;;;;;;0.10;0.10;;;;;;;19.18;59.35;97206.94;10407986;28;20076;-23
2022/06/11 14:15:30;;;;;;;0.10;0.10;;;;;;;19.42;57.73;97199.47;10409492;28;20045;-21
2022/06/11 14:20:31;;;;;;;0.10;0.10;;;;;;;19.29;58.02;97202.78;10407332;28;20033;-21
2022/06/11 14:25:37;;;;;;;0.10;0.10;;;;;;;19.24;58.05;97205.31;10406828;28;20041;-22
2022/06/11 14:30:37;;;;;;;0.00;0.00;;;;;;;19.21;58.04;97210.38;10408289;28;20037;-23
2022/06/11 14:35:49;;;;;;;0.10;0.10;;;;;;;19.20;58.00;97202.75;10430839;28;20044;-21
2022/06/11 14:40:53;;;;;;;0.20;0.20;;;;;;;19.18;57.65;97199.34;10414489;28;20530;-21
2022/06/11 14:46:00;;;;;;;0.20;0.10;;;;;;;19.18;57.95;97194.25;10414193;28;20037;-22
2022/06/11 14:51:00;;;;;;;0.20;0.13;;;;;;;19.17;57.89;97197.63;10430781;28;20024;-21
2022/06/11 14:56:13;;;;;;;0.13;0.10;;;;;;;19.09;57.91;97179.81;10483767;28;20487;-23
2022/06/11 15:01:51;;;;;;;0.30;0.20;;;;;;;19.16;57.82;97190.88;10413729;28;20476;-20
2022/06/11 15:07:25;;;;;;;0.13;0.10;;;;;;;19.35;58.69;97188.44;10413327;28;20499;-22
2022/06/11 15:12:34;;;;;;;0.20;0.10;;;;;;;19.46;58.39;97186.78;10411438;28;20304;-22
2022/06/11 15:17:53;;;;;;;0.10;0.10;;;;;;;19.33;58.64;97179.97;10412783;28;20033;-21
2022/06/11 15:22:55;;;;;;;0.10;0.10;;;;;;;19.25;58.21;97176.53;10412491;28;20038;-21
2022/06/11 15:27:56;;;;;;;0.40;0.10;;;;;;;19.20;57.76;97182.44;10432749;28;20071;-22
2022/06/11 15:33:17;;;;;;;0.30;0.10;;;;;;;19.15;58.00;97173.91;10453220;28;20021;-22
2022/06/11 15:38:27;;;;;;;0.10;0.10;;;;;;;19.20;57.83;97182.44;10420824;28;20045;-23
2022/06/11 15:43:35;;;;;;;0.10;0.10;;;;;;;19.20;57.91;97177.38;10411853;28;20038;-22
2022/06/11 15:48:41;;;;;;;0.10;0.10;;;;;;;19.14;57.88;97168.00;10411344;28;20034;-22
2022/06/11 15:59:20;;;;;;;0.20;0.20;;;;;;;19.18;57.95;97179.03;10410616;28;20038;-23
2022/06/11 16:04:33;;;;;;;0.20;0.20;;;;;;;19.30;59.13;97181.63;10410892;28;20041;-21
2022/06/11 16:09:37;;;;;;;0.10;0.10;;;;;;;19.47;59.14;97183.41;10410342;28;20033;-22
2022/06/11 16:14:43;;;;;;;0.00;0.00;;;;;;;19.39;58.43;97179.13;10410202;28;20045;-22
2022/06/11 16:19:56;;;;;;;0.10;0.10;;;;;;;19.28;58.30;97173.19;10410128;28;20080;-21
2022/06/11 16:25:02;;;;;;;0.10;0.10;;;;;;;19.23;58.21;97177.38;10411672;28;20048;-22
2022/06/11 16:30:07;;;;;;;0.10;0.10;;;;;;;19.21;58.05;97169.78;10450488;28;20098;-20
2022/06/11 16:35:22;;;;;;;0.10;0.10;;;;;;;19.21;58.00;97171.44;10440243;28;20037;-22
2022/06/11 16:40:26;;;;;;;0.10;0.10;;;;;;;19.20;57.97;97170.63;10412469;28;20400;-21
2022/06/11 16:45:30;;;;;;;0.10;0.10;;;;;;;19.19;58.01;97179.03;10411807;28;20037;-21
2022/06/11 17:01:14;;;;;;;0.10;0.10;;;;;;;19.26;59.65;97177.41;10411214;28;20369;-21
2022/06/11 17:06:24;;;;;;;0.10;0.10;;;;;;;19.47;59.08;97167.31;10411044;28;20475;-22
2022/06/11 17:11:25;;;;;;;0.00;0.00;;;;;;;19.48;58.18;97169.00;10410504;28;20395;-22
2022/06/11 17:16:29;;;;;;;0.28;0.10;;;;;;;19.33;58.05;97174.06;10410339;28;20038;-20
2022/06/11 17:21:36;;;;;;;0.10;0.10;;;;;;;19.28;58.17;97175.72;10411593;28;20116;-21
2022/06/11 17:26:41;;;;;;;0.10;0.10;;;;;;;19.24;58.00;97172.31;10410664;28;20045;-21
2022/06/11 17:31:44;;;;;;;0.13;0.10;;;;;;;19.21;58.03;97174.84;10411939;28;20096;-21
2022/06/11 17:36:48;;;;;;;0.20;0.10;;;;;;;19.20;57.77;97174.84;10438573;28;20033;-20
2022/06/11 17:41:51;;;;;;;0.10;0.10;;;;;;;19.19;57.85;97183.28;10409838;28;20040;-23
2022/06/11 17:46:58;;;;;;;0.10;0.10;;;;;;;19.19;57.86;97180.75;10410942;28;20461;-22
2022/06/11 17:52:01;;;;;;;0.10;0.10;;;;;;;19.18;57.75;97173.94;10443588;28;20040;-21
2022/06/11 17:57:03;;;;;;;0.20;0.20;;;;;;;19.18;57.79;97173.94;10464745;28;20029;-20
2022/06/11 18:02:24;;;;;;;0.00;0.00;;;;;;;19.38;59.01;97178.31;10410419;28;20037;-21
2022/06/11 18:07:25;;;;;;;0.10;0.10;;;;;;;19.46;58.19;97163.06;10408416;28;20037;-20
2022/06/11 18:12:25;;;;;;;0.32;0.10;;;;;;;19.39;58.87;97174.06;10412017;28;20484;-24
2022/06/11 18:17:27;;;;;;;0.20;0.10;;;;;;;19.29;58.10;97172.34;10415539;28;20411;-20
2022/06/11 18:27:50;;;;;;;0.10;0.10;;;;;;;19.23;58.07;97177.38;10414826;28;20033;-21
2022/06/11 18:32:50;;;;;;;0.10;0.10;;;;;;;19.22;57.81;97180.75;10424814;28;20172;-21
2022/06/11 18:37:51;;;;;;;0.10;0.10;;;;;;;19.21;57.92;97184.13;10425971;28;20033;-21
2022/06/11 18:42:52;;;;;;;0.10;0.10;;;;;;;19.19;57.90;97183.28;10414189;28;20116;-21
2022/06/11 18:47:53;;;;;;;0.17;0.13;;;;;;;19.20;57.92;97192.59;10414218;28;20112;-21
2022/06/11 18:52:54;;;;;;;0.20;0.10;;;;;;;19.09;57.87;97179.00;10461888;28;20028;-20
2022/06/11 18:57:55;;;;;;;0.10;0.10;;;;;;;19.24;60.36;97197.69;10452809;28;20041;-22
2022/06/11 19:02:55;;;;;;;0.10;0.10;;;;;;;19.47;58.81;97198.66;10413120;28;20048;-22
2022/06/11 19:07:56;;;;;;;0.10;0.10;;;;;;;19.46;58.14;97202.03;10413688;28;20037;-21
2022/06/11 19:12:56;;;;;;;0.00;0.00;;;;;;;19.33;58.25;97201.97;10433881;28;20056;-22
2022/06/11 19:17:56;;;;;;;0.10;0.10;;;;;;;19.27;57.99;97204.50;10454431;28;20434;-20
2022/06/11 19:23:02;;;;;;;0.00;0.00;;;;;;;19.25;57.88;97213.78;10413204;28;20426;-22
2022/06/11 19:28:04;;;;;;;0.10;0.10;;;;;;;19.23;57.87;97212.91;10434656;28;20036;-20
2022/06/11 19:33:07;;;;;;;0.20;0.20;;;;;;;19.21;57.73;97210.38;10453712;28;20086;-21
2022/06/11 19:38:07;;;;;;;0.10;0.10;;;;;;;19.21;57.77;97212.06;10452882;28;20065;-21
2022/06/11 19:43:10;;;;;;;0.10;0.10;;;;;;;19.20;57.75;97218.84;10430090;28;20064;-20
2022/06/11 19:48:17;;;;;;;0.30;0.30;;;;;;;19.20;57.87;97223.06;10412571;28;20037;-21
2022/06/11 19:53:18;;;;;;;0.10;0.10;;;;;;;19.20;57.85;97233.22;10469093;28;20048;-22
2022/06/11 19:58:19;;;;;;;0.10;0.10;;;;;;;19.41;58.96;97243.50;10468156;28;20059;-22
2022/06/11 20:03:20;;;;;;;0.10;0.00;;;;;;;19.54;58.02;97250.31;10452242;28;20264;-20
2022/06/11 20:08:22;;;;;;;0.05;0.05;;;;;;;19.39;58.73;97250.22;10419405;28;20040;-20
2022/06/11 20:13:22;;;;;;;0.10;0.10;;;;;;;19.31;58.04;97251.88;10436160;28;20071;-22
2022/06/11 20:18:23;;;;;;;0.30;0.10;;;;;;;19.27;57.87;97250.19;10451988;28;20041;-20
2022/06/11 20:23:24;;;;;;;0.10;0.10;;;;;;;19.24;57.90;97247.63;10411702;28;20082;-20
2022/06/11 20:28:25;;;;;;;0.13;0.13;;;;;;;19.24;57.89;97250.19;10410353;28;20315;-23
2022/06/11 20:33:27;;;;;;;0.10;0.10;;;;;;;19.23;58.02;97258.59;10425760;28;20057;-21
2022/06/11 20:38:29;;;;;;;0.15;0.15;;;;;;;19.22;57.96;97259.44;10450637;28;20094;-21
2022/06/11 20:43:30;;;;;;;0.10;0.10;;;;;;;19.21;57.77;97252.69;10424752;28;20083;-21
2022/06/11 20:48:30;;;;;;;0.13;0.13;;;;;;;19.21;57.79;97255.22;10410452;28;20091;-21
2022/06/11 20:53:31;;;;;;;0.00;0.00;;;;;;;19.30;59.89;97252.72;10467630;28;20032;-20
2022/06/11 20:58:32;;;;;;;0.10;0.10;;;;;;;19.50;58.82;97246.06;10438974;28;20033;-21
2022/06/11 21:03:33;;;;;;;0.10;0.10;;;;;;;19.51;58.16;97250.31;10409348;28;20048;-22
2022/06/11 21:13:53;;;;;;;0.20;0.20;;;;;;;19.30;57.95;97255.25;10408396;28;20536;-21
2022/06/11 21:18:53;;;;;;;0.13;0.10;;;;;;;19.23;57.99;97251.84;10408730;28;20135;-21
2022/06/11 21:23:54;;;;;;;0.20;0.20;;;;;;;19.25;57.93;97247.63;10408680;28;20037;-21
2022/06/11 21:28:54;;;;;;;0.20;0.10;;;;;;;19.24;57.78;97247.63;10408584;28;20059;-23
2022/06/11 21:33:54;;;;;;;0.10;0.10;;;;;;;19.23;58.49;97246.78;10427595;28;20037;-23
2022/06/11 21:38:56;;;;;;;0.10;0.10;;;;;;;19.24;57.81;97245.09;10447778;28;20303;-21
2022/06/11 21:43:56;;;;;;;0.10;0.10;;;;;;;19.22;57.87;97245.09;10419278;28;20060;-21
2022/06/11 21:48:58;;;;;;;0.20;0.20;;;;;;;19.20;57.85;97244.22;10415538;28;20033;-20
2022/06/11 21:53:58;;;;;;;0.10;0.10;;;;;;;19.40;59.09;97245.16;10482182;28;20032;-22
2022/06/11 21:58:59;;;;;;;0.10;0.10;;;;;;;19.56;58.13;97239.31;10438174;28;20384;-21
2022/06/11 22:03:59;;;;;;;0.08;0.08;;;;;;;19.42;58.48;97240.09;10416536;28;20041;-21
2022/06/11 22:09:00;;;;;;;0.10;0.10;;;;;;;19.33;58.03;97240.06;10457745;28;20323;-20
2022/06/11 22:14:02;;;;;;;0.00;0.00;;;;;;;19.29;57.90;97240.88;10426398;28;20037;-21
2022/06/11 22:19:04;;;;;;;0.32;0.32;;;;;;;19.26;57.91;97238.34;10424150;28;20507;-20
2022/06/11 22:24:06;;;;;;;0.10;0.10;;;;;;;19.25;57.82;97239.19;10456300;28;20037;-22
2022/06/11 22:29:08;;;;;;;0.10;0.10;;;;;;;19.25;57.97;97246.78;10424712;28;20049;-21
2022/06/11 22:34:08;;;;;;;0.17;0.17;;;;;;;19.24;57.97;97250.19;10433715;28;20545;-20
2022/06/11 22:39:08;;;;;;;0.10;0.10;;;;;;;19.23;57.91;97246.78;10415302;28;20044;-22
2022/06/11 22:44:09;;;;;;;0.20;0.20;;;;;;;19.23;57.87;97251.00;10444559;28;20785;-21
2022/06/11 22:49:10;;;;;;;0.10;0.00;;;;;;;19.31;60.21;97246.81;10455175;28;20033;-21
2022/06/11 22:54:12;;;;;;;0.15;0.10;;;;;;;19.51;58.79;97240.97;10486317;28;20036;-21
2022/06/11 22:59:13;;;;;;;0.10;0.08;;;;;;;19.52;57.85;97237.59;10431447;28;20037;-22
2022/06/11 23:04:13;;;;;;;0.10;0.10;;;;;;;19.38;58.13;97238.38;10413310;28;20061;-20
2022/06/11 23:09:14;;;;;;;0.10;0.10;;;;;;;19.29;58.04;97243.41;10446604;28;20087;-21
2022/06/11 23:14:15;;;;;;;0.10;0.10;;;;;;;19.29;58.14;97238.34;10421971;28;20384;-22
2022/06/11 23:19:15;;;;;;;0.20;0.10;;;;;;;19.27;57.93;97242.56;10412820;28;20454;-21
2022/06/11 23:24:16;;;;;;;0.13;0.13;;;;;;;19.27;57.98;97229.88;10412858;28;20049;-21
2022/06/11 23:29:16;;;;;;;0.10;0.10;;;;;;;19.25;57.80;97224.78;10412152;28;20313;-21
2022/06/11 23:34:16;;;;;;;0.10;0.10;;;;;;;19.25;57.87;97227.31;10434569;28;20056;-21
2022/06/11 23:39:17;;;;;;;0.20;0.20;;;;;;;19.24;57.90;97220.53;10418001;28;20045;-22
2022/06/11 23:44:19;;;;;;;0.20;0.20;;;;;;;19.24;58.06;97220.53;10411379;28;20408;-20
2022/06/11 23:49:19;;;;;;;0.10;0.10;;;;;;;19.40;59.89;97221.44;10411899;28;20037;-22
2022/06/11 23:54:19;;;;;;;0.27;0.20;;;;;;;19.56;59.13;97223.22;10482882;28;20079;-22
2022/06/11 23:59:20;;;;;;;0.10;0.10;;;;;;;19.50;58.46;97215.59;10459217;28;20040;-22
